createdAt,value
2023-02-11T00:55:15.183Z,59.65
2023-02-11T00:56:15.271Z,56.78
2023-02-11T00:57:15.356Z,60.18
2023-02-11T00:58:15.438Z,57.92
2023-02-11T00:59:15.520Z,56.01
2023-02-11T01:00:15.615Z,54.58
2023-02-11T01:01:15.788Z,57.14
2023-02-11T01:02:15.780Z,56.98
2023-02-11T01:03:15.873Z,57.64
2023-02-11T01:04:15.955Z,59.26
2023-02-11T01:05:16.082Z,58.75
2023-02-11T01:06:16.123Z,57.94
2023-02-11T01:07:16.212Z,57.14
2023-02-11T01:08:16.311Z,57.53
2023-02-11T01:09:16.382Z,55.83
2023-02-11T01:10:16.471Z,55.79
2023-02-11T01:11:16.554Z,57.44
2023-02-11T01:12:16.636Z,55.59
2023-02-11T01:13:16.737Z,56.22
2023-02-11T01:14:16.807Z,57.65
2023-02-11T01:15:16.888Z,56.94
2023-02-11T01:16:17.020Z,58.52
2023-02-11T01:17:17.065Z,57.67
2023-02-11T01:18:17.158Z,56.81
2023-02-11T01:19:17.241Z,57.88
2023-02-11T01:20:17.321Z,57.57
2023-02-11T01:21:17.402Z,56.85
2023-02-11T01:22:17.493Z,55.40
2023-02-11T01:23:17.587Z,56.76
2023-02-11T01:24:17.681Z,56.69
2023-02-11T01:25:17.763Z,57.75
2023-02-11T01:26:17.847Z,55.20
2023-02-11T01:27:17.932Z,57.67
2023-02-11T01:28:18.054Z,56.03
2023-02-11T01:29:18.111Z,55.76
2023-02-11T01:30:18.204Z,52.50
2023-02-11T01:31:18.402Z,54.07
2023-02-11T01:32:18.409Z,55.00
2023-02-11T01:33:18.445Z,54.12
2023-02-11T01:34:18.529Z,53.99
2023-02-11T01:35:18.617Z,56.91
2023-02-11T01:36:18.702Z,52.84
2023-02-11T01:37:18.791Z,51.90
2023-02-11T01:38:18.879Z,53.50
2023-02-11T01:39:18.959Z,53.06
2023-02-11T01:40:19.049Z,52.95
2023-02-11T01:41:19.135Z,53.61
2023-02-11T01:42:19.214Z,56.08
2023-02-11T01:43:19.299Z,52.57
2023-02-11T01:44:19.407Z,53.42
2023-02-11T01:45:19.478Z,52.29
2023-02-11T01:46:19.710Z,51.43
2023-02-11T01:47:19.678Z,51.99
2023-02-11T01:48:19.745Z,51.76
2023-02-11T01:49:19.938Z,52.35
2023-02-11T01:50:19.927Z,51.93
2023-02-11T01:51:20.036Z,52.59
2023-02-11T01:52:20.101Z,49.76
2023-02-11T01:53:20.172Z,51.30
2023-02-11T01:54:20.258Z,50.65
2023-02-11T01:55:20.339Z,51.18
2023-02-11T01:56:20.443Z,49.09
2023-02-11T01:57:20.539Z,50.34
2023-02-11T01:59:20.710Z,50.91
2023-02-11T02:48:25.227Z,46.93
2023-02-11T02:49:25.333Z,46.49
2023-02-11T02:50:25.419Z,46.11
2023-02-11T02:51:25.512Z,46.24
2023-02-11T02:58:26.133Z,48.06
2023-02-11T02:59:26.222Z,49.52
2023-02-11T03:00:26.381Z,49.60
2023-02-11T03:01:26.399Z,49.52
2023-02-11T03:02:26.487Z,48.40
2023-02-11T03:03:26.614Z,46.79
2023-02-11T03:04:26.669Z,45.88
2023-02-11T03:05:26.761Z,46.84
2023-02-11T03:06:26.846Z,47.64
2023-02-11T03:07:26.936Z,46.10
2023-02-11T03:08:27.016Z,47.44
2023-02-11T03:09:27.108Z,46.20
2023-02-11T03:10:27.202Z,45.55
2023-02-11T03:11:27.280Z,46.18
2023-02-11T03:12:27.387Z,43.75
2023-02-11T03:13:27.462Z,45.14
2023-02-11T03:14:27.551Z,45.97
2023-02-11T03:15:27.651Z,47.18
2023-02-11T03:16:27.868Z,47.80
2023-02-11T03:17:27.815Z,46.98
2023-02-11T03:18:27.898Z,44.82
2023-02-11T03:19:27.996Z,45.51
2023-02-11T03:20:28.092Z,47.87
2023-02-11T03:21:28.194Z,45.75
2023-02-11T03:22:28.274Z,51.02
2023-02-11T03:23:28.375Z,51.09
2023-02-11T03:24:28.449Z,48.45
2023-02-11T03:25:28.564Z,47.01
2023-02-11T03:26:28.702Z,48.00
2023-02-11T03:27:28.726Z,48.52
2023-02-11T03:28:28.881Z,48.97
2023-02-11T03:29:28.910Z,45.99
2023-02-11T03:30:29.004Z,45.75
2023-02-11T03:31:29.191Z,44.94
2023-02-11T03:32:29.184Z,44.39
2023-02-11T03:33:29.265Z,40.02
2023-02-11T03:34:29.362Z,39.73
2023-02-11T03:35:29.469Z,45.34
2023-02-11T03:36:29.556Z,42.95
2023-02-11T03:37:29.648Z,48.55
2023-02-11T03:38:29.740Z,46.24
2023-02-11T03:39:29.859Z,41.92
2023-02-11T03:40:29.932Z,47.47
2023-02-11T03:41:30.027Z,42.00
2023-02-11T03:42:30.126Z,43.86
2023-02-11T03:43:30.203Z,45.41
2023-02-11T03:44:30.291Z,48.19
2023-02-11T03:45:30.424Z,46.82
2023-02-11T03:46:30.474Z,46.52
2023-02-11T03:47:30.580Z,49.19
2023-02-11T03:48:30.664Z,47.06
2023-02-11T03:49:30.756Z,43.27
2023-02-11T03:50:30.850Z,44.52
2023-02-11T03:51:30.940Z,44.97
2023-02-11T03:52:31.025Z,45.39
2023-02-11T03:53:31.117Z,49.06
2023-02-11T03:54:31.217Z,44.29
2023-02-11T03:55:31.302Z,43.63
2023-02-11T03:56:31.405Z,42.67
2023-02-11T03:57:31.495Z,44.18
2023-02-11T03:58:31.589Z,44.51
2023-02-11T03:59:31.689Z,44.62
2023-02-11T04:00:31.778Z,44.25
2023-02-11T04:01:31.896Z,41.53
2023-02-11T04:02:31.966Z,45.25
2023-02-11T04:03:32.077Z,43.96
2023-02-11T04:04:32.136Z,46.18
2023-02-11T04:05:32.239Z,46.60
2023-02-11T04:06:32.336Z,41.45
2023-02-11T04:07:32.438Z,42.99
2023-02-11T04:08:32.511Z,43.88
2023-02-11T04:09:32.606Z,41.76
2023-02-11T04:10:32.704Z,43.33
2023-02-11T04:11:32.807Z,43.30
2023-02-11T04:12:32.887Z,44.75
2023-02-11T04:13:32.984Z,42.79
2023-02-11T04:14:33.063Z,42.73
2023-02-11T04:15:33.160Z,42.76
2023-02-11T04:16:33.326Z,42.56
2023-02-11T04:17:33.349Z,41.06
2023-02-11T04:18:33.459Z,43.30
2023-02-11T04:19:33.538Z,48.14
2023-02-11T04:20:33.633Z,43.83
2023-02-11T04:21:33.736Z,43.52
2023-02-11T04:22:33.820Z,40.00
2023-02-11T04:23:33.921Z,40.31
2023-02-11T04:24:34.009Z,41.03
2023-02-11T04:25:34.116Z,41.88
2023-02-11T04:26:34.195Z,42.69
2023-02-11T04:27:34.285Z,49.24
2023-02-11T04:28:34.436Z,48.67
2023-02-11T04:29:34.474Z,42.22
2023-02-11T04:30:34.553Z,38.49
2023-02-11T04:31:34.754Z,37.67
2023-02-11T04:32:34.744Z,40.80
2023-02-11T04:33:34.833Z,41.99
2023-02-11T04:34:34.920Z,42.84
2023-02-11T04:35:35.026Z,46.64
2023-02-11T04:36:35.101Z,45.91
2023-02-11T04:37:35.229Z,45.35
2023-02-11T04:38:35.282Z,44.93
2023-02-11T04:39:35.374Z,42.45
2023-02-11T04:40:35.470Z,41.53
2023-02-11T04:41:35.542Z,47.37
2023-02-11T04:42:35.625Z,49.30
2023-02-11T04:43:35.721Z,48.70
2023-02-11T04:44:35.807Z,48.34
2023-02-11T04:45:35.965Z,47.77
2023-02-11T04:46:35.983Z,52.14
2023-02-11T04:47:36.070Z,48.05
2023-02-11T04:48:36.157Z,49.46
2023-02-11T04:49:36.248Z,48.98
2023-02-11T04:50:36.333Z,50.38
2023-02-11T04:51:36.424Z,54.15
2023-02-11T04:52:36.513Z,55.50
2023-02-11T04:53:36.606Z,51.68
2023-02-11T04:54:36.685Z,52.42
2023-02-11T04:55:36.768Z,53.31
2023-02-11T04:56:36.850Z,56.21
2023-02-11T04:57:36.929Z,56.22
2023-02-11T04:58:37.013Z,58.84
2023-02-11T04:59:37.101Z,58.18
2023-02-11T05:00:37.174Z,52.74
2023-02-11T05:01:37.289Z,55.67
2023-02-11T05:02:37.351Z,59.55
2023-02-11T05:03:37.440Z,55.75
2023-02-11T05:04:37.522Z,54.34
2023-02-11T05:05:37.598Z,54.97
2023-02-11T05:06:37.694Z,55.72
2023-02-11T05:07:37.782Z,52.55
2023-02-11T05:08:37.868Z,52.25
2023-02-11T05:09:37.954Z,52.98
2023-02-11T05:10:38.047Z,53.86
2023-02-11T05:11:38.135Z,49.06
2023-02-11T05:12:38.219Z,52.64
2023-02-11T05:13:38.327Z,49.54
2023-02-11T05:14:38.388Z,50.66
2023-02-11T05:15:38.478Z,50.01
2023-02-11T05:16:38.651Z,55.14
2023-02-11T05:17:38.660Z,54.48
2023-02-11T05:18:38.746Z,56.13
2023-02-11T05:19:38.820Z,53.36
2023-02-11T05:20:38.909Z,54.73
2023-02-11T05:21:40.109Z,56.10
2023-02-11T05:22:39.032Z,59.41
2023-02-11T05:23:39.041Z,58.45
2023-02-11T05:24:39.072Z,60.41
2023-02-11T05:25:39.079Z,60.73
2023-02-11T05:26:39.119Z,60.10
2023-02-11T05:27:39.146Z,51.84
2023-02-11T05:28:39.167Z,50.72
2023-02-11T05:29:39.196Z,56.55
2023-02-11T05:30:39.345Z,59.65
2023-02-11T05:31:39.241Z,51.53
2023-02-11T05:32:39.257Z,55.62
2023-02-11T05:33:39.275Z,58.12
2023-02-11T05:34:39.313Z,56.25
2023-02-11T05:35:39.336Z,55.34
2023-02-11T05:36:39.366Z,57.74
2023-02-11T05:37:39.410Z,57.08
2023-02-11T05:38:39.399Z,57.55
2023-02-11T05:39:39.431Z,58.53
2023-02-11T05:40:39.458Z,61.27
2023-02-11T05:41:39.481Z,61.51
2023-02-11T05:42:39.498Z,59.08
2023-02-11T05:43:39.528Z,63.66
2023-02-11T05:44:39.546Z,64.73
2023-02-11T05:45:39.576Z,64.67
2023-02-11T05:46:39.674Z,59.67
2023-02-11T05:47:39.613Z,64.33
2023-02-11T05:48:39.695Z,58.56
2023-02-11T05:49:39.674Z,58.56
2023-02-11T05:50:39.698Z,59.17
2023-02-11T05:51:39.719Z,59.79
2023-02-11T05:52:39.740Z,56.06
2023-02-11T05:53:39.762Z,56.31
2023-02-11T05:54:39.806Z,55.53
2023-02-11T05:55:39.817Z,52.31
2023-02-11T05:56:39.836Z,58.93
2023-02-11T05:57:39.873Z,50.57
2023-02-11T05:58:39.999Z,51.77
2023-02-11T05:59:40.051Z,52.73
2023-02-11T06:00:40.152Z,52.92
2023-02-11T06:01:40.231Z,48.15
2023-02-11T06:02:40.366Z,51.87
2023-02-11T06:03:40.473Z,55.04
2023-02-11T06:04:40.507Z,48.53
2023-02-11T06:05:40.593Z,53.57
2023-02-11T06:06:40.692Z,52.46
2023-02-11T06:07:40.775Z,44.98
2023-02-11T06:08:40.883Z,53.50
2023-02-11T06:09:40.943Z,45.30
2023-02-11T06:10:41.025Z,44.59
2023-02-11T06:11:41.115Z,49.94
2023-02-11T06:12:41.211Z,49.44
2023-02-11T06:13:41.298Z,49.17
2023-02-11T06:14:41.388Z,45.05
2023-02-11T06:15:41.507Z,49.97
2023-02-11T06:16:41.565Z,50.38
2023-02-11T06:17:41.670Z,49.37
2023-02-11T06:18:41.746Z,44.85
2023-02-11T06:25:42.399Z,47.84
2023-02-11T06:57:45.147Z,39.14
2023-02-11T06:58:45.244Z,37.34
2023-02-11T06:59:45.312Z,39.86
2023-02-11T07:00:45.409Z,36.30
2023-02-11T07:01:45.537Z,36.28
2023-02-11T07:02:45.595Z,37.82
2023-02-11T07:03:45.676Z,37.40
2023-02-11T07:04:45.743Z,36.06
2023-02-11T07:05:45.825Z,36.59
2023-02-11T07:06:45.907Z,38.49
2023-02-11T08:52:55.170Z,67.10
2023-02-11T08:53:55.259Z,69.45
2023-02-11T08:54:55.336Z,67.29
2023-02-11T08:55:55.449Z,69.30
2023-02-11T08:56:55.524Z,68.09
2023-02-11T08:57:55.596Z,65.23
2023-02-11T08:58:55.674Z,70.40
2023-02-11T08:59:55.766Z,69.57
2023-02-11T09:00:55.873Z,68.50
2023-02-11T09:01:55.962Z,69.31
2023-02-11T09:02:56.016Z,69.72
2023-02-11T09:03:56.100Z,70.16
2023-02-11T09:04:56.190Z,68.11
2023-02-11T09:05:56.267Z,69.37
2023-02-11T09:06:56.358Z,72.46
2023-02-11T09:07:56.449Z,71.36
2023-02-11T09:08:56.546Z,67.19
2023-02-11T09:09:56.621Z,69.64
2023-02-11T09:10:56.699Z,70.11
2023-02-11T09:11:56.775Z,71.03
2023-02-11T09:12:56.870Z,70.08
2023-02-11T09:13:56.947Z,72.14
2023-02-11T09:14:57.029Z,74.55
2023-02-11T09:15:57.105Z,73.97
2023-02-11T09:16:57.243Z,70.94
2023-02-11T09:17:57.268Z,73.63
2023-02-11T09:18:57.378Z,75.88
2023-02-11T09:19:57.429Z,72.32
2023-02-11T10:53:05.199Z,89.06
2023-02-11T10:54:05.291Z,88.72
2023-02-11T10:55:05.358Z,87.16
2023-02-11T10:56:05.443Z,87.63
2023-02-11T10:57:05.548Z,86.76
2023-02-11T10:58:05.627Z,88.78
2023-02-11T10:59:05.693Z,91.19
2023-02-11T11:00:05.781Z,91.33
2023-02-11T11:01:19.004Z,89.18
2023-02-11T11:02:06.946Z,89.31
2023-02-11T11:03:05.920Z,89.33
2023-02-11T11:04:05.944Z,89.42
2023-02-11T11:05:06.127Z,87.84
2023-02-11T11:06:06.013Z,88.81
2023-02-11T11:07:06.034Z,87.35
2023-02-11T11:08:06.071Z,82.86
2023-02-11T11:09:06.092Z,85.18
2023-02-11T11:10:06.128Z,85.06
2023-02-11T11:11:06.150Z,88.54
2023-02-11T11:12:06.173Z,86.84
2023-02-11T11:13:06.249Z,88.24
2023-02-11T11:14:06.307Z,88.33
2023-02-11T11:15:06.395Z,88.65
2023-02-11T11:16:06.548Z,90.56
2023-02-11T11:17:06.572Z,89.58
2023-02-11T11:18:20.548Z,90.60
2023-02-11T11:19:07.677Z,90.81
2023-02-11T11:20:06.692Z,90.97
2023-02-11T11:21:06.726Z,91.63
2023-02-11T11:22:06.764Z,91.79
2023-02-11T11:23:06.818Z,92.53
2023-02-11T11:24:06.814Z,93.07
2023-02-11T11:25:06.850Z,92.62
2023-02-11T11:26:06.880Z,90.56
2023-02-11T11:27:06.923Z,92.31
2023-02-11T11:28:07.021Z,94.69
2023-02-11T11:29:06.994Z,95.40
2023-02-11T11:30:07.013Z,93.30
2023-02-11T11:31:07.171Z,94.05
2023-02-11T11:32:07.189Z,93.19
2023-02-11T11:33:07.198Z,96.23
2023-02-11T11:34:07.283Z,95.33
2023-02-11T11:35:07.367Z,98.33
2023-02-11T11:36:07.455Z,96.55
2023-02-11T11:37:07.522Z,96.54
2023-02-11T11:38:07.603Z,98.58
2023-02-11T11:39:07.695Z,97.90
2023-02-11T11:40:07.786Z,97.80
2023-02-11T11:41:07.841Z,97.28
2023-02-11T11:42:07.923Z,96.84
2023-02-11T11:43:08.038Z,96.95
2023-02-11T11:44:08.098Z,100.31
2023-02-11T11:45:08.158Z,99.31
2023-02-11T11:46:08.231Z,97.81
2023-02-11T11:47:08.309Z,99.86
2023-02-11T11:48:08.382Z,100.20
2023-02-11T11:49:08.458Z,98.86
2023-02-11T11:50:08.531Z,98.89
2023-02-11T11:51:08.608Z,98.96
2023-02-11T11:52:08.694Z,98.84
2023-02-11T11:53:08.769Z,97.51
2023-02-11T11:54:08.842Z,95.10
2023-02-11T11:55:08.930Z,99.24
2023-02-11T11:56:09.006Z,97.98
2023-02-11T11:57:09.074Z,98.42
2023-02-11T11:58:09.151Z,98.39
2023-02-11T11:59:09.232Z,96.72
2023-02-11T12:00:09.322Z,98.36
2023-02-11T12:01:09.418Z,98.37
2023-02-11T12:02:09.658Z,96.62
2023-02-11T12:03:09.620Z,98.37
2023-02-11T12:04:09.640Z,98.64
2023-02-11T12:05:09.720Z,99.11
2023-02-11T12:06:09.802Z,97.54
2023-02-11T12:07:09.898Z,100.44
2023-02-11T12:08:09.971Z,97.32
2023-02-11T12:09:10.039Z,99.81
2023-02-11T12:10:10.127Z,96.71
2023-02-11T12:11:10.198Z,98.34
2023-02-11T12:12:11.224Z,99.61
2023-02-11T12:13:10.356Z,97.48
2023-02-11T12:14:10.442Z,97.65
2023-02-11T12:15:10.509Z,96.10
2023-02-11T12:16:10.638Z,96.28
2023-02-11T12:17:10.669Z,97.18
2023-02-11T12:18:10.754Z,97.03
2023-02-11T12:19:10.832Z,96.39
2023-02-11T12:20:10.912Z,97.39
2023-02-11T12:21:10.992Z,99.26
2023-02-11T12:22:11.095Z,97.65
2023-02-11T12:23:11.159Z,97.05
2023-02-11T12:24:11.260Z,95.80
2023-02-11T12:25:11.314Z,93.80
2023-02-11T12:26:11.387Z,94.79
2023-02-11T12:27:11.462Z,94.71
2023-02-11T12:28:11.603Z,95.65
2023-02-11T12:29:11.621Z,95.72
2023-02-11T12:30:11.712Z,95.25
2023-02-11T12:31:13.195Z,96.07
2023-02-11T12:32:11.902Z,96.40
2023-02-11T12:33:11.954Z,96.47
2023-02-11T12:34:12.032Z,96.19
2023-02-11T12:35:12.124Z,95.74
2023-02-11T12:36:12.187Z,95.85
2023-02-11T12:37:12.268Z,97.39
2023-02-11T12:38:12.346Z,96.18
2023-02-11T12:39:12.430Z,96.68
2023-02-11T12:40:12.562Z,96.22
2023-02-11T12:41:12.585Z,97.32
2023-02-11T12:42:12.660Z,99.00
2023-02-11T12:43:12.743Z,97.19
2023-02-11T12:44:12.818Z,97.87
2023-02-11T12:45:12.894Z,97.00
2023-02-11T13:01:14.292Z,95.21
2023-02-11T13:13:15.152Z,93.63
2023-02-11T13:14:15.233Z,94.17
2023-02-11T13:15:15.315Z,92.83
2023-02-11T13:16:15.435Z,91.71
2023-02-11T13:17:15.482Z,93.09
2023-02-11T13:18:18.076Z,92.39
2023-02-11T13:19:15.600Z,95.48
2023-02-11T13:20:15.625Z,94.58
2023-02-11T13:21:15.626Z,95.48
2023-02-11T13:22:15.713Z,91.72
2023-02-11T13:23:15.694Z,89.21
2023-02-11T13:24:15.712Z,90.64
2023-02-11T13:25:15.731Z,89.48
2023-02-11T13:26:15.745Z,88.59
2023-02-11T13:27:15.766Z,87.34
2023-02-11T13:28:15.847Z,89.42
2023-02-11T13:29:15.832Z,89.97
2023-02-11T13:30:15.860Z,89.45
2023-02-11T13:31:15.970Z,88.85
2023-02-11T13:32:15.896Z,90.41
2023-02-11T13:33:15.918Z,90.51
2023-02-11T13:34:15.953Z,92.53
2023-02-11T13:35:15.989Z,87.98
2023-02-11T13:36:16.007Z,92.12
2023-02-11T13:37:16.021Z,89.37
2023-02-11T13:38:16.042Z,90.84
2023-02-11T13:39:16.074Z,92.22
2023-02-11T13:40:16.101Z,91.38
2023-02-11T13:41:16.123Z,90.21
2023-02-11T13:42:16.162Z,89.18
2023-02-11T13:43:16.187Z,89.14
2023-02-11T13:44:16.207Z,91.05
2023-02-11T13:45:16.248Z,90.83
2023-02-11T13:46:16.308Z,90.33
2023-02-11T13:47:16.284Z,89.74
2023-02-11T13:48:16.308Z,89.08
2023-02-11T13:49:16.339Z,88.95
2023-02-11T13:50:16.367Z,90.00
2023-02-11T13:51:16.386Z,91.46
2023-02-11T13:52:16.417Z,89.14
2023-02-11T13:53:16.500Z,91.42
2023-02-11T13:54:16.582Z,89.44
2023-02-11T13:55:16.674Z,90.88
2023-02-11T13:56:16.749Z,88.31
2023-02-11T13:57:16.827Z,88.79
2023-02-11T13:58:16.910Z,88.08
2023-02-11T13:59:16.997Z,89.56
2023-02-11T14:00:17.080Z,90.19
2023-02-11T14:01:17.211Z,90.06
2023-02-11T14:02:17.328Z,93.28
2023-02-11T14:03:17.327Z,93.17
2023-02-11T14:04:17.412Z,94.13
2023-02-11T14:05:17.497Z,91.21
2023-02-11T14:06:17.574Z,91.14
2023-02-11T14:07:17.658Z,92.03
2023-02-11T14:08:17.747Z,93.60
2023-02-11T14:09:17.831Z,90.51
2023-02-11T14:10:17.918Z,90.89
2023-02-11T14:11:17.989Z,92.19
2023-02-11T14:12:18.079Z,90.68
2023-02-11T15:33:25.175Z,87.39
2023-02-11T15:34:25.260Z,88.53
2023-02-11T15:35:25.341Z,88.83
2023-02-11T15:36:25.434Z,88.86
2023-02-11T15:37:25.518Z,88.01
2023-02-11T15:38:25.593Z,88.01
2023-02-11T15:39:25.684Z,87.70
2023-02-11T15:40:25.766Z,87.83
2023-02-11T15:41:25.882Z,88.38
2023-02-11T15:42:25.960Z,87.24
2023-02-11T15:43:26.063Z,89.47
2023-02-11T15:44:26.141Z,86.31
2023-02-11T15:45:26.225Z,86.22
2023-02-11T15:46:26.358Z,85.92
2023-02-11T15:47:26.402Z,89.36
2023-02-11T15:48:26.487Z,87.26
2023-02-11T15:49:26.576Z,87.25
2023-02-11T15:50:26.664Z,88.89
2023-02-11T15:51:26.747Z,88.03
2023-02-11T16:19:29.199Z,90.88
2023-02-11T17:25:35.355Z,85.06
2023-02-11T17:30:35.155Z,82.79
2023-02-11T17:31:35.372Z,83.32
2023-02-11T17:32:35.338Z,84.06
2023-02-11T17:33:36.300Z,85.83
2023-02-11T17:34:35.523Z,84.44
2023-02-11T17:35:35.609Z,83.35
2023-02-11T17:36:35.688Z,83.21
2023-02-11T17:37:35.792Z,83.33
2023-02-11T17:38:35.861Z,84.77
2023-02-11T17:39:35.950Z,83.11
2023-02-11T17:40:36.035Z,82.47
2023-02-11T17:41:36.127Z,83.46
2023-02-11T17:42:36.220Z,84.01
2023-02-11T17:43:36.300Z,83.98
2023-02-11T17:44:36.393Z,83.90
2023-02-11T17:45:36.509Z,82.25
2023-02-11T17:46:36.577Z,82.47
2023-02-11T17:47:36.677Z,83.18
2023-02-11T17:48:36.767Z,82.77
2023-02-11T17:49:36.872Z,81.51
2023-02-11T17:50:36.953Z,81.48
2023-02-11T17:51:37.034Z,81.33
2023-02-11T17:52:37.116Z,80.58
2023-02-11T17:53:37.189Z,83.50
2023-02-11T17:54:37.287Z,82.12
2023-02-11T17:55:37.374Z,81.55
2023-02-11T17:56:37.465Z,80.49
2023-02-11T17:57:37.560Z,81.68
2023-02-11T17:58:37.643Z,83.08
2023-02-11T17:59:37.737Z,81.62
2023-02-11T18:00:37.825Z,84.48
2023-02-11T18:01:37.937Z,81.20
2023-02-11T18:02:37.997Z,81.74
2023-02-11T18:03:38.099Z,82.21
2023-02-11T18:04:38.266Z,81.49
2023-02-11T18:05:38.281Z,80.29
2023-02-11T18:06:38.344Z,82.54
2023-02-11T18:07:38.446Z,81.04
2023-02-11T18:08:38.544Z,83.32
2023-02-11T18:09:38.614Z,80.32
2023-02-11T18:10:38.710Z,82.38
2023-02-11T18:11:38.790Z,83.91
2023-02-11T18:12:38.879Z,80.00
2023-02-11T18:13:38.988Z,83.40
2023-02-11T18:14:39.075Z,82.11
2023-02-11T18:15:39.144Z,81.64
2023-02-11T18:16:39.467Z,83.55
2023-02-11T18:17:39.310Z,81.56
2023-02-11T18:18:39.390Z,81.10
2023-02-11T18:19:39.485Z,81.84
2023-02-11T18:20:39.573Z,81.09
2023-02-11T18:21:39.668Z,80.07
2023-02-11T18:22:39.754Z,78.76
2023-02-11T18:23:39.817Z,79.35
2023-02-11T18:24:39.896Z,80.20
2023-02-11T18:25:39.964Z,83.40
2023-02-11T18:26:40.031Z,80.80
2023-02-11T18:27:40.103Z,81.55
2023-02-11T18:28:40.165Z,79.90
2023-02-11T18:29:40.230Z,78.38
2023-02-11T19:25:45.201Z,78.70
2023-02-11T19:26:45.306Z,78.73
2023-02-11T19:27:45.406Z,79.04
2023-02-11T19:28:45.489Z,78.04
2023-02-11T19:29:45.563Z,79.09
2023-02-11T19:30:45.673Z,77.69
2023-02-11T19:31:46.027Z,76.80
2023-02-11T19:32:45.843Z,79.19
2023-02-11T19:33:45.924Z,78.19
2023-02-11T19:34:46.027Z,78.90
2023-02-11T19:35:46.111Z,75.98
2023-02-11T19:36:46.212Z,74.67
2023-02-11T19:37:46.300Z,79.61
2023-02-11T19:38:46.390Z,79.93
2023-02-11T19:39:46.452Z,78.54
2023-02-11T19:40:46.542Z,75.24
2023-02-11T19:41:46.638Z,80.31
2023-02-11T19:42:46.727Z,79.02
2023-02-11T19:43:46.823Z,79.99
2023-02-11T19:44:46.921Z,78.05
2023-02-11T19:45:46.995Z,77.71
2023-02-11T19:46:47.077Z,76.87
2023-02-11T19:47:47.170Z,78.80
2023-02-11T19:48:47.261Z,77.22
2023-02-11T19:49:47.356Z,77.02
2023-02-11T19:50:47.439Z,78.23
2023-02-11T19:51:47.524Z,78.61
2023-02-11T19:52:47.631Z,77.50
2023-02-11T19:53:47.734Z,78.08
2023-02-11T19:54:47.813Z,76.68
2023-02-11T19:58:48.154Z,76.97
2023-02-11T20:13:49.515Z,78.44
2023-02-11T21:17:55.175Z,78.98
2023-02-11T21:18:55.281Z,76.36
2023-02-11T21:19:55.378Z,77.28
2023-02-11T21:20:55.500Z,78.60
2023-02-11T21:21:55.597Z,79.57
2023-02-11T23:02:05.284Z,77.16
2023-02-11T23:03:05.296Z,79.57
2023-02-11T23:04:05.407Z,75.89
2023-02-11T23:05:05.506Z,77.81
2023-02-11T23:06:05.595Z,79.44
2023-02-11T23:07:05.682Z,76.32
2023-02-11T23:08:05.781Z,76.94
2023-02-11T23:09:05.891Z,78.01
2023-02-11T23:10:05.986Z,76.71
2023-02-11T23:11:06.101Z,78.26
2023-02-11T23:12:06.185Z,77.28
2023-02-11T23:13:06.279Z,78.16
2023-02-11T23:14:06.369Z,77.45
2023-02-11T23:15:06.470Z,78.17
2023-02-11T23:16:06.608Z,77.95
2023-02-11T23:17:06.670Z,77.94
2023-02-11T23:18:06.769Z,78.09
2023-02-11T23:19:06.897Z,77.17
2023-02-11T23:20:06.983Z,78.17
2023-02-11T23:21:07.090Z,78.04
2023-02-11T23:22:07.186Z,76.69
2023-02-11T23:23:07.297Z,75.21
2023-02-11T23:24:07.378Z,79.17
2023-02-11T23:25:07.484Z,77.85
2023-02-11T23:26:07.587Z,78.42
2023-02-11T23:27:07.694Z,78.28
2023-02-11T23:28:07.790Z,79.51
2023-02-11T23:29:07.872Z,78.21
2023-02-11T23:30:07.976Z,79.04
2023-02-11T23:31:08.242Z,79.57
2023-02-11T23:32:08.191Z,80.19
2023-02-11T23:33:08.299Z,78.70
2023-02-11T23:34:08.370Z,77.78
2023-02-11T23:35:08.460Z,79.28
2023-02-11T23:36:08.561Z,77.76
2023-02-11T23:37:08.648Z,79.34
2023-02-11T23:38:08.762Z,78.82
2023-02-11T23:39:08.859Z,77.19
2023-02-11T23:40:08.966Z,74.06
2023-02-11T23:41:09.063Z,77.75
2023-02-11T23:42:09.152Z,76.93
2023-02-11T23:43:09.247Z,78.05
2023-02-11T23:44:09.396Z,76.40
2023-02-11T23:45:09.433Z,79.29
2023-02-11T23:46:09.662Z,79.32
2023-02-11T23:47:09.659Z,78.43
2023-02-11T23:48:09.748Z,76.10
2023-02-11T23:49:09.856Z,77.81
2023-02-11T23:50:09.960Z,74.56
2023-02-11T23:51:10.068Z,78.02
2023-02-11T23:52:10.159Z,77.97
2023-02-11T23:53:10.252Z,77.28
2023-02-11T23:54:10.361Z,76.74
2023-02-11T23:55:10.450Z,79.22
2023-02-11T23:56:10.574Z,76.72
2023-02-11T23:57:10.729Z,78.43
